sensor_id;sensor_type;location;lat;lon;timestamp;P1;durP1;ratioP1;P2;durP2;ratioP2
16660;SDS011;8444;52.012;5.048;2023-04-03T00:04:29;1.53;;;1.10;;
16660;SDS011;8444;52.012;5.048;2023-04-03T00:16:57;2.40;;;0.90;;
16660;SDS011;8444;52.012;5.048;2023-04-03T00:20:00;1.00;;;0.90;;
16660;SDS011;8444;52.012;5.048;2023-04-03T00:28:51;1.53;;;0.90;;
16660;SDS011;8444;52.012;5.048;2023-04-03T00:31:16;1.50;;;1.30;;
16660;SDS011;8444;52.012;5.048;2023-04-03T00:33:41;2.90;;;1.10;;
16660;SDS011;8444;52.012;5.048;2023-04-03T00:36:08;1.60;;;1.00;;
16660;SDS011;8444;52.012;5.048;2023-04-03T00:38:34;1.60;;;1.10;;
16660;SDS011;8444;52.012;5.048;2023-04-03T00:40:59;1.57;;;1.10;;
16660;SDS011;8444;52.012;5.048;2023-04-03T00:43:25;3.00;;;1.40;;
16660;SDS011;8444;52.012;5.048;2023-04-03T00:45:52;1.73;;;1.10;;
16660;SDS011;8444;52.012;5.048;2023-04-03T00:48:39;3.30;;;1.30;;
16660;SDS011;8444;52.012;5.048;2023-04-03T00:51:03;5.13;;;1.30;;
16660;SDS011;8444;52.012;5.048;2023-04-03T00:53:30;0.97;;;0.80;;
16660;SDS011;8444;52.012;5.048;2023-04-03T00:55:57;2.63;;;1.30;;
16660;SDS011;8444;52.012;5.048;2023-04-03T00:58:25;2.73;;;1.00;;
16660;SDS011;8444;52.012;5.048;2023-04-03T01:00:53;3.00;;;1.33;;
16660;SDS011;8444;52.012;5.048;2023-04-03T01:03:22;2.57;;;1.00;;
16660;SDS011;8444;52.012;5.048;2023-04-03T01:05:47;2.10;;;1.30;;
16660;SDS011;8444;52.012;5.048;2023-04-03T01:08:13;2.80;;;1.20;;
16660;SDS011;8444;52.012;5.048;2023-04-03T01:10:38;1.67;;;1.00;;
16660;SDS011;8444;52.012;5.048;2023-04-03T01:13:16;1.50;;;1.20;;
16660;SDS011;8444;52.012;5.048;2023-04-03T01:15:42;3.73;;;1.27;;
16660;SDS011;8444;52.012;5.048;2023-04-03T01:18:08;1.90;;;1.50;;
16660;SDS011;8444;52.012;5.048;2023-04-03T01:23:27;2.60;;;1.83;;
16660;SDS011;8444;52.012;5.048;2023-04-03T01:25:56;2.93;;;1.33;;
16660;SDS011;8444;52.012;5.048;2023-04-03T01:28:24;2.13;;;1.37;;
16660;SDS011;8444;52.012;5.048;2023-04-03T01:33:20;1.20;;;1.10;;
16660;SDS011;8444;52.012;5.048;2023-04-03T01:35:45;2.20;;;1.40;;
16660;SDS011;8444;52.012;5.048;2023-04-03T01:38:11;1.63;;;1.17;;
16660;SDS011;8444;52.012;5.048;2023-04-03T01:40:36;2.30;;;1.23;;
16660;SDS011;8444;52.012;5.048;2023-04-03T01:43:01;1.73;;;1.50;;
16660;SDS011;8444;52.012;5.048;2023-04-03T01:45:27;3.60;;;1.07;;
16660;SDS011;8444;52.012;5.048;2023-04-03T01:47:52;3.77;;;1.17;;
16660;SDS011;8444;52.012;5.048;2023-04-03T01:50:17;2.43;;;1.20;;
16660;SDS011;8444;52.012;5.048;2023-04-03T01:52:42;2.00;;;1.20;;
16660;SDS011;8444;52.012;5.048;2023-04-03T01:55:08;2.37;;;1.50;;
16660;SDS011;8444;52.012;5.048;2023-04-03T01:57:33;1.50;;;1.20;;
16660;SDS011;8444;52.012;5.048;2023-04-03T01:59:58;3.37;;;1.30;;
16660;SDS011;8444;52.012;5.048;2023-04-03T02:02:23;4.30;;;1.13;;
16660;SDS011;8444;52.012;5.048;2023-04-03T02:04:48;3.23;;;1.33;;
16660;SDS011;8444;52.012;5.048;2023-04-03T02:07:14;1.60;;;1.50;;
16660;SDS011;8444;52.012;5.048;2023-04-03T02:09:39;2.23;;;1.20;;
16660;SDS011;8444;52.012;5.048;2023-04-03T02:12:04;2.60;;;1.40;;
16660;SDS011;8444;52.012;5.048;2023-04-03T02:14:29;2.10;;;1.50;;
16660;SDS011;8444;52.012;5.048;2023-04-03T02:16:55;2.37;;;1.40;;
16660;SDS011;8444;52.012;5.048;2023-04-03T02:19:20;2.50;;;1.10;;
16660;SDS011;8444;52.012;5.048;2023-04-03T02:21:45;2.50;;;1.50;;
16660;SDS011;8444;52.012;5.048;2023-04-03T02:24:10;2.47;;;1.20;;
16660;SDS011;8444;52.012;5.048;2023-04-03T02:26:36;2.20;;;1.83;;
16660;SDS011;8444;52.012;5.048;2023-04-03T02:29:01;3.13;;;1.50;;
16660;SDS011;8444;52.012;5.048;2023-04-03T02:31:26;3.57;;;1.43;;
16660;SDS011;8444;52.012;5.048;2023-04-03T02:33:51;5.07;;;1.50;;
16660;SDS011;8444;52.012;5.048;2023-04-03T02:36:16;3.90;;;1.70;;
16660;SDS011;8444;52.012;5.048;2023-04-03T02:38:42;3.00;;;1.67;;
16660;SDS011;8444;52.012;5.048;2023-04-03T02:41:08;2.20;;;1.80;;
16660;SDS011;8444;52.012;5.048;2023-04-03T02:43:34;3.40;;;1.60;;
16660;SDS011;8444;52.012;5.048;2023-04-03T02:45:59;4.40;;;1.77;;
16660;SDS011;8444;52.012;5.048;2023-04-03T02:48:24;4.40;;;1.57;;
16660;SDS011;8444;52.012;5.048;2023-04-03T02:50:50;3.77;;;1.50;;
16660;SDS011;8444;52.012;5.048;2023-04-03T02:53:15;4.73;;;1.63;;
16660;SDS011;8444;52.012;5.048;2023-04-03T02:55:40;3.70;;;1.50;;
16660;SDS011;8444;52.012;5.048;2023-04-03T02:58:06;2.07;;;1.40;;
16660;SDS011;8444;52.012;5.048;2023-04-03T03:00:31;2.03;;;1.30;;
16660;SDS011;8444;52.012;5.048;2023-04-03T03:02:57;4.57;;;1.50;;
16660;SDS011;8444;52.012;5.048;2023-04-03T03:05:22;1.83;;;1.20;;
16660;SDS011;8444;52.012;5.048;2023-04-03T03:07:47;1.60;;;1.50;;
16660;SDS011;8444;52.012;5.048;2023-04-03T03:10:12;3.40;;;2.40;;
16660;SDS011;8444;52.012;5.048;2023-04-03T03:12:38;5.43;;;1.60;;
16660;SDS011;8444;52.012;5.048;2023-04-03T03:15:03;1.77;;;1.20;;
16660;SDS011;8444;52.012;5.048;2023-04-03T03:17:28;7.60;;;2.50;;
16660;SDS011;8444;52.012;5.048;2023-04-03T03:19:54;2.03;;;1.40;;
16660;SDS011;8444;52.012;5.048;2023-04-03T03:22:19;2.93;;;1.60;;
16660;SDS011;8444;52.012;5.048;2023-04-03T03:24:44;2.10;;;1.70;;
16660;SDS011;8444;52.012;5.048;2023-04-03T03:27:10;3.87;;;1.47;;
16660;SDS011;8444;52.012;5.048;2023-04-03T03:29:35;3.13;;;1.37;;
16660;SDS011;8444;52.012;5.048;2023-04-03T03:32:00;4.03;;;1.80;;
16660;SDS011;8444;52.012;5.048;2023-04-03T03:34:25;6.83;;;1.60;;
16660;SDS011;8444;52.012;5.048;2023-04-03T03:36:50;7.20;;;1.80;;
16660;SDS011;8444;52.012;5.048;2023-04-03T03:39:16;3.03;;;1.47;;
16660;SDS011;8444;52.012;5.048;2023-04-03T03:41:41;3.37;;;1.80;;
16660;SDS011;8444;52.012;5.048;2023-04-03T03:44:06;2.60;;;1.50;;
16660;SDS011;8444;52.012;5.048;2023-04-03T03:46:31;2.13;;;1.37;;
16660;SDS011;8444;52.012;5.048;2023-04-03T03:48:56;1.87;;;1.40;;
16660;SDS011;8444;52.012;5.048;2023-04-03T03:51:22;5.73;;;1.47;;
16660;SDS011;8444;52.012;5.048;2023-04-03T03:53:47;7.20;;;1.90;;
16660;SDS011;8444;52.012;5.048;2023-04-03T03:56:12;3.60;;;2.00;;
16660;SDS011;8444;52.012;5.048;2023-04-03T03:58:37;3.57;;;1.60;;
16660;SDS011;8444;52.012;5.048;2023-04-03T04:01:03;5.43;;;2.00;;
16660;SDS011;8444;52.012;5.048;2023-04-03T04:03:28;3.03;;;1.63;;
16660;SDS011;8444;52.012;5.048;2023-04-03T04:05:54;4.13;;;2.00;;
16660;SDS011;8444;52.012;5.048;2023-04-03T04:08:19;2.70;;;1.80;;
16660;SDS011;8444;52.012;5.048;2023-04-03T04:10:45;1.83;;;1.50;;
16660;SDS011;8444;52.012;5.048;2023-04-03T04:13:10;5.47;;;1.90;;
16660;SDS011;8444;52.012;5.048;2023-04-03T04:15:35;2.40;;;1.80;;
16660;SDS011;8444;52.012;5.048;2023-04-03T04:18:00;2.67;;;1.80;;
16660;SDS011;8444;52.012;5.048;2023-04-03T04:20:26;4.10;;;2.20;;
16660;SDS011;8444;52.012;5.048;2023-04-03T04:22:51;3.10;;;2.00;;
16660;SDS011;8444;52.012;5.048;2023-04-03T04:25:16;3.67;;;1.97;;
16660;SDS011;8444;52.012;5.048;2023-04-03T04:27:41;3.67;;;2.20;;
16660;SDS011;8444;52.012;5.048;2023-04-03T04:30:07;2.90;;;1.70;;
16660;SDS011;8444;52.012;5.048;2023-04-03T04:32:32;3.27;;;2.00;;
16660;SDS011;8444;52.012;5.048;2023-04-03T04:34:57;5.57;;;2.20;;
16660;SDS011;8444;52.012;5.048;2023-04-03T04:37:22;5.33;;;1.73;;
16660;SDS011;8444;52.012;5.048;2023-04-03T04:39:48;3.93;;;2.03;;
16660;SDS011;8444;52.012;5.048;2023-04-03T04:42:13;4.73;;;2.03;;
16660;SDS011;8444;52.012;5.048;2023-04-03T04:44:38;5.60;;;2.13;;
16660;SDS011;8444;52.012;5.048;2023-04-03T04:47:04;3.07;;;1.93;;
16660;SDS011;8444;52.012;5.048;2023-04-03T04:49:29;3.27;;;1.87;;
16660;SDS011;8444;52.012;5.048;2023-04-03T04:51:55;2.53;;;1.90;;
16660;SDS011;8444;52.012;5.048;2023-04-03T04:54:20;7.07;;;2.10;;
16660;SDS011;8444;52.012;5.048;2023-04-03T04:56:45;2.30;;;1.87;;
16660;SDS011;8444;52.012;5.048;2023-04-03T04:59:10;5.77;;;2.50;;
16660;SDS011;8444;52.012;5.048;2023-04-03T05:01:36;6.30;;;2.60;;
16660;SDS011;8444;52.012;5.048;2023-04-03T05:04:01;4.00;;;2.10;;
16660;SDS011;8444;52.012;5.048;2023-04-03T05:06:26;3.50;;;1.90;;
16660;SDS011;8444;52.012;5.048;2023-04-03T05:08:51;5.23;;;2.83;;
16660;SDS011;8444;52.012;5.048;2023-04-03T05:11:17;6.03;;;3.30;;
16660;SDS011;8444;52.012;5.048;2023-04-03T05:13:42;6.40;;;3.57;;
16660;SDS011;8444;52.012;5.048;2023-04-03T05:16:07;3.60;;;2.27;;
16660;SDS011;8444;52.012;5.048;2023-04-03T05:18:32;4.60;;;2.23;;
16660;SDS011;8444;52.012;5.048;2023-04-03T05:20:57;4.30;;;2.20;;
16660;SDS011;8444;52.012;5.048;2023-04-03T05:23:23;3.97;;;2.10;;
16660;SDS011;8444;52.012;5.048;2023-04-03T05:25:48;3.50;;;2.00;;
16660;SDS011;8444;52.012;5.048;2023-04-03T05:28:14;5.80;;;2.27;;
16660;SDS011;8444;52.012;5.048;2023-04-03T05:30:39;6.37;;;2.60;;
16660;SDS011;8444;52.012;5.048;2023-04-03T05:33:05;10.23;;;3.07;;
16660;SDS011;8444;52.012;5.048;2023-04-03T05:35:30;3.67;;;2.00;;
16660;SDS011;8444;52.012;5.048;2023-04-03T05:37:56;3.70;;;2.10;;
16660;SDS011;8444;52.012;5.048;2023-04-03T05:40:21;6.50;;;2.67;;
16660;SDS011;8444;52.012;5.048;2023-04-03T05:42:46;6.43;;;2.63;;
16660;SDS011;8444;52.012;5.048;2023-04-03T05:45:11;3.73;;;2.10;;
16660;SDS011;8444;52.012;5.048;2023-04-03T05:47:37;5.13;;;2.60;;
16660;SDS011;8444;52.012;5.048;2023-04-03T05:50:02;4.30;;;3.07;;
16660;SDS011;8444;52.012;5.048;2023-04-03T05:52:29;5.23;;;2.50;;
16660;SDS011;8444;52.012;5.048;2023-04-03T05:54:54;4.63;;;2.80;;
16660;SDS011;8444;52.012;5.048;2023-04-03T05:57:20;2.67;;;1.97;;
16660;SDS011;8444;52.012;5.048;2023-04-03T05:59:45;14.53;;;3.30;;
16660;SDS011;8444;52.012;5.048;2023-04-03T06:02:21;3.57;;;2.30;;
16660;SDS011;8444;52.012;5.048;2023-04-03T06:04:46;4.57;;;2.30;;
16660;SDS011;8444;52.012;5.048;2023-04-03T06:07:13;4.53;;;2.47;;
16660;SDS011;8444;52.012;5.048;2023-04-03T06:09:39;5.37;;;2.10;;
16660;SDS011;8444;52.012;5.048;2023-04-03T06:12:04;6.50;;;2.13;;
16660;SDS011;8444;52.012;5.048;2023-04-03T06:14:29;4.40;;;2.60;;
16660;SDS011;8444;52.012;5.048;2023-04-03T06:16:55;2.83;;;1.67;;
16660;SDS011;8444;52.012;5.048;2023-04-03T06:19:20;7.10;;;2.57;;
16660;SDS011;8444;52.012;5.048;2023-04-03T06:21:46;3.83;;;1.80;;
16660;SDS011;8444;52.012;5.048;2023-04-03T06:24:12;2.53;;;1.70;;
16660;SDS011;8444;52.012;5.048;2023-04-03T06:26:38;7.03;;;2.27;;
16660;SDS011;8444;52.012;5.048;2023-04-03T06:29:03;10.07;;;2.53;;
16660;SDS011;8444;52.012;5.048;2023-04-03T06:31:29;4.93;;;2.00;;
16660;SDS011;8444;52.012;5.048;2023-04-03T06:33:54;4.77;;;2.17;;
16660;SDS011;8444;52.012;5.048;2023-04-03T06:36:20;3.63;;;1.83;;
16660;SDS011;8444;52.012;5.048;2023-04-03T06:38:46;6.53;;;2.13;;
16660;SDS011;8444;52.012;5.048;2023-04-03T06:41:11;3.27;;;1.67;;
16660;SDS011;8444;52.012;5.048;2023-04-03T06:43:36;2.53;;;1.53;;
16660;SDS011;8444;52.012;5.048;2023-04-03T06:46:02;3.47;;;1.97;;
16660;SDS011;8444;52.012;5.048;2023-04-03T06:48:27;3.17;;;1.70;;
16660;SDS011;8444;52.012;5.048;2023-04-03T06:50:52;5.60;;;2.00;;
16660;SDS011;8444;52.012;5.048;2023-04-03T06:53:18;3.37;;;1.80;;
16660;SDS011;8444;52.012;5.048;2023-04-03T06:55:43;6.90;;;1.77;;
16660;SDS011;8444;52.012;5.048;2023-04-03T06:58:08;2.50;;;1.80;;
16660;SDS011;8444;52.012;5.048;2023-04-03T07:00:34;2.63;;;1.80;;
16660;SDS011;8444;52.012;5.048;2023-04-03T07:02:59;3.70;;;1.73;;
16660;SDS011;8444;52.012;5.048;2023-04-03T07:05:25;6.87;;;2.00;;
16660;SDS011;8444;52.012;5.048;2023-04-03T07:07:51;4.23;;;1.97;;
16660;SDS011;8444;52.012;5.048;2023-04-03T07:10:16;6.17;;;1.93;;
16660;SDS011;8444;52.012;5.048;2023-04-03T07:12:42;2.50;;;1.70;;
16660;SDS011;8444;52.012;5.048;2023-04-03T07:15:07;5.77;;;1.93;;
16660;SDS011;8444;52.012;5.048;2023-04-03T07:17:33;5.30;;;2.13;;
16660;SDS011;8444;52.012;5.048;2023-04-03T07:19:59;2.13;;;1.60;;
16660;SDS011;8444;52.012;5.048;2023-04-03T07:22:24;7.53;;;2.10;;
16660;SDS011;8444;52.012;5.048;2023-04-03T07:24:49;3.40;;;1.60;;
16660;SDS011;8444;52.012;5.048;2023-04-03T07:27:14;4.83;;;1.87;;
16660;SDS011;8444;52.012;5.048;2023-04-03T07:29:40;3.70;;;1.87;;
16660;SDS011;8444;52.012;5.048;2023-04-03T07:32:05;5.33;;;2.20;;
16660;SDS011;8444;52.012;5.048;2023-04-03T07:34:31;4.43;;;1.87;;
16660;SDS011;8444;52.012;5.048;2023-04-03T07:36:57;4.63;;;1.50;;
16660;SDS011;8444;52.012;5.048;2023-04-03T07:39:22;2.43;;;2.03;;
16660;SDS011;8444;52.012;5.048;2023-04-03T07:41:48;3.40;;;1.80;;
16660;SDS011;8444;52.012;5.048;2023-04-03T07:44:13;2.83;;;1.80;;
16660;SDS011;8444;52.012;5.048;2023-04-03T07:46:38;6.60;;;1.87;;
16660;SDS011;8444;52.012;5.048;2023-04-03T07:49:03;3.47;;;1.83;;
16660;SDS011;8444;52.012;5.048;2023-04-03T07:51:29;5.60;;;1.83;;
16660;SDS011;8444;52.012;5.048;2023-04-03T07:53:54;5.20;;;1.90;;
16660;SDS011;8444;52.012;5.048;2023-04-03T07:56:20;4.13;;;1.97;;
16660;SDS011;8444;52.012;5.048;2023-04-03T07:58:46;3.53;;;1.60;;
16660;SDS011;8444;52.012;5.048;2023-04-03T08:01:11;2.43;;;1.40;;
16660;SDS011;8444;52.012;5.048;2023-04-03T08:03:37;4.70;;;1.50;;
16660;SDS011;8444;52.012;5.048;2023-04-03T08:06:03;3.80;;;1.70;;
16660;SDS011;8444;52.012;5.048;2023-04-03T08:08:29;4.27;;;1.17;;
16660;SDS011;8444;52.012;5.048;2023-04-03T08:10:55;7.27;;;1.73;;
16660;SDS011;8444;52.012;5.048;2023-04-03T08:13:20;3.47;;;1.67;;
16660;SDS011;8444;52.012;5.048;2023-04-03T08:15:46;4.80;;;1.83;;
16660;SDS011;8444;52.012;5.048;2023-04-03T08:18:11;4.20;;;1.60;;
16660;SDS011;8444;52.012;5.048;2023-04-03T08:20:37;2.10;;;1.27;;
16660;SDS011;8444;52.012;5.048;2023-04-03T08:23:03;3.20;;;1.93;;
16660;SDS011;8444;52.012;5.048;2023-04-03T08:25:28;7.37;;;2.30;;
16660;SDS011;8444;52.012;5.048;2023-04-03T08:27:54;4.57;;;1.50;;
16660;SDS011;8444;52.012;5.048;2023-04-03T08:30:19;1.27;;;1.10;;
16660;SDS011;8444;52.012;5.048;2023-04-03T08:32:45;3.67;;;1.10;;
16660;SDS011;8444;52.012;5.048;2023-04-03T08:35:11;2.27;;;1.30;;
16660;SDS011;8444;52.012;5.048;2023-04-03T08:37:36;1.80;;;1.43;;
16660;SDS011;8444;52.012;5.048;2023-04-03T08:40:03;2.07;;;1.40;;
16660;SDS011;8444;52.012;5.048;2023-04-03T08:48:17;4.57;;;1.10;;
16660;SDS011;8444;52.012;5.048;2023-04-03T08:50:47;2.37;;;1.23;;
16660;SDS011;8444;52.012;5.048;2023-04-03T08:53:15;2.23;;;1.00;;
16660;SDS011;8444;52.012;5.048;2023-04-03T08:55:45;3.07;;;1.57;;
16660;SDS011;8444;52.012;5.048;2023-04-03T08:58:15;1.17;;;1.00;;
16660;SDS011;8444;52.012;5.048;2023-04-03T09:00:46;4.20;;;1.07;;
16660;SDS011;8444;52.012;5.048;2023-04-03T09:03:13;3.37;;;1.33;;
16660;SDS011;8444;52.012;5.048;2023-04-03T09:05:44;2.00;;;1.00;;
16660;SDS011;8444;52.012;5.048;2023-04-03T09:10:40;1.97;;;1.30;;
16660;SDS011;8444;52.012;5.048;2023-04-03T09:13:09;4.60;;;1.60;;
16660;SDS011;8444;52.012;5.048;2023-04-03T09:15:36;1.83;;;0.70;;
16660;SDS011;8444;52.012;5.048;2023-04-03T09:25:49;1.17;;;0.60;;
16660;SDS011;8444;52.012;5.048;2023-04-03T09:28:16;2.10;;;0.60;;
16660;SDS011;8444;52.012;5.048;2023-04-03T09:30:41;0.73;;;0.60;;
16660;SDS011;8444;52.012;5.048;2023-04-03T09:33:07;0.90;;;0.63;;
16660;SDS011;8444;52.012;5.048;2023-04-03T09:35:34;0.93;;;0.70;;
16660;SDS011;8444;52.012;5.048;2023-04-03T09:38:01;1.97;;;0.60;;
16660;SDS011;8444;52.012;5.048;2023-04-03T09:40:34;0.98;;;0.38;;
16660;SDS011;8444;52.012;5.048;2023-04-03T09:45:46;3.90;;;0.93;;
16660;SDS011;8444;52.012;5.048;2023-04-03T09:50:37;0.47;;;0.45;;
16660;SDS011;8444;52.012;5.048;2023-04-03T09:53:06;1.85;;;0.68;;
16660;SDS011;8444;52.012;5.048;2023-04-03T09:55:32;0.63;;;0.63;;
16660;SDS011;8444;52.012;5.048;2023-04-03T09:58:06;0.90;;;0.40;;
16660;SDS011;8444;52.012;5.048;2023-04-03T10:00:53;1.20;;;0.50;;
16660;SDS011;8444;52.012;5.048;2023-04-03T10:03:29;1.07;;;0.70;;
16660;SDS011;8444;52.012;5.048;2023-04-03T10:05:55;1.13;;;0.70;;
16660;SDS011;8444;52.012;5.048;2023-04-03T10:08:24;1.83;;;0.70;;
16660;SDS011;8444;52.012;5.048;2023-04-03T10:13:31;1.10;;;0.50;;
16660;SDS011;8444;52.012;5.048;2023-04-03T10:16:05;0.57;;;0.57;;
16660;SDS011;8444;52.012;5.048;2023-04-03T10:20:59;0.93;;;0.40;;
16660;SDS011;8444;52.012;5.048;2023-04-03T10:23:28;1.35;;;0.50;;
16660;SDS011;8444;52.012;5.048;2023-04-03T10:28:48;1.70;;;0.45;;
16660;SDS011;8444;52.012;5.048;2023-04-03T10:33:52;0.43;;;0.43;;
16660;SDS011;8444;52.012;5.048;2023-04-03T10:38:54;0.50;;;0.40;;
16660;SDS011;8444;52.012;5.048;2023-04-03T10:41:34;0.60;;;0.40;;
16660;SDS011;8444;52.012;5.048;2023-04-03T10:46:42;1.45;;;0.30;;
16660;SDS011;8444;52.012;5.048;2023-04-03T10:49:11;0.35;;;0.30;;
16660;SDS011;8444;52.012;5.048;2023-04-03T10:51:48;1.60;;;0.40;;
16660;SDS011;8444;52.012;5.048;2023-04-03T10:54:24;0.85;;;0.38;;
16660;SDS011;8444;52.012;5.048;2023-04-03T10:56:52;2.95;;;0.50;;
16660;SDS011;8444;52.012;5.048;2023-04-03T11:01:48;0.40;;;0.35;;
16660;SDS011;8444;52.012;5.048;2023-04-03T11:04:14;0.32;;;0.28;;
16660;SDS011;8444;52.012;5.048;2023-04-03T11:09:15;0.20;;;0.20;;
16660;SDS011;8444;52.012;5.048;2023-04-03T11:11:41;0.30;;;0.30;;
16660;SDS011;8444;52.012;5.048;2023-04-03T11:19:39;0.45;;;0.35;;
16660;SDS011;8444;52.012;5.048;2023-04-03T11:22:50;1.70;;;0.40;;
16660;SDS011;8444;52.012;5.048;2023-04-03T11:25:02;3.90;;;0.40;;
16660;SDS011;8444;52.012;5.048;2023-04-03T11:27:30;1.30;;;0.30;;
16660;SDS011;8444;52.012;5.048;2023-04-03T11:29:58;0.43;;;0.35;;
16660;SDS011;8444;52.012;5.048;2023-04-03T11:35:05;0.50;;;0.38;;
16660;SDS011;8444;52.012;5.048;2023-04-03T11:37:36;0.80;;;0.40;;
16660;SDS011;8444;52.012;5.048;2023-04-03T11:40:06;1.30;;;0.50;;
16660;SDS011;8444;52.012;5.048;2023-04-03T11:42:41;1.27;;;0.32;;
16660;SDS011;8444;52.012;5.048;2023-04-03T11:50:44;0.55;;;0.40;;
16660;SDS011;8444;52.012;5.048;2023-04-03T12:05:48;1.02;;;0.93;;
16660;SDS011;8444;52.012;5.048;2023-04-03T12:08:29;1.77;;;0.40;;
16660;SDS011;8444;52.012;5.048;2023-04-03T12:16:18;1.27;;;0.60;;
16660;SDS011;8444;52.012;5.048;2023-04-03T12:18:53;1.58;;;0.68;;
16660;SDS011;8444;52.012;5.048;2023-04-03T12:22:10;3.20;;;0.93;;
16660;SDS011;8444;52.012;5.048;2023-04-03T12:29:12;1.23;;;0.60;;
16660;SDS011;8444;52.012;5.048;2023-04-03T12:31:41;2.25;;;0.60;;
16660;SDS011;8444;52.012;5.048;2023-04-03T12:36:40;1.88;;;0.90;;
16660;SDS011;8444;52.012;5.048;2023-04-03T12:39:14;2.42;;;0.70;;
16660;SDS011;8444;52.012;5.048;2023-04-03T12:46:39;2.45;;;0.55;;
16660;SDS011;8444;52.012;5.048;2023-04-03T12:49:41;0.85;;;0.60;;
16660;SDS011;8444;52.012;5.048;2023-04-03T12:51:59;1.05;;;0.73;;
16660;SDS011;8444;52.012;5.048;2023-04-03T12:54:37;2.70;;;0.55;;
16660;SDS011;8444;52.012;5.048;2023-04-03T12:59:48;1.63;;;1.00;;
16660;SDS011;8444;52.012;5.048;2023-04-03T13:02:22;1.13;;;0.60;;
16660;SDS011;8444;52.012;5.048;2023-04-03T13:04:48;1.88;;;0.70;;
16660;SDS011;8444;52.012;5.048;2023-04-03T13:07:23;3.20;;;0.82;;
16660;SDS011;8444;52.012;5.048;2023-04-03T13:10:00;0.63;;;0.50;;
16660;SDS011;8444;52.012;5.048;2023-04-03T13:12:26;1.45;;;0.80;;
16660;SDS011;8444;52.012;5.048;2023-04-03T13:14:52;1.50;;;0.60;;
16660;SDS011;8444;52.012;5.048;2023-04-03T13:17:18;1.10;;;0.70;;
16660;SDS011;8444;52.012;5.048;2023-04-03T13:19:44;0.73;;;0.63;;
16660;SDS011;8444;52.012;5.048;2023-04-03T13:22:18;2.83;;;0.80;;
16660;SDS011;8444;52.012;5.048;2023-04-03T13:24:44;1.65;;;0.50;;
16660;SDS011;8444;52.012;5.048;2023-04-03T13:27:11;0.68;;;0.55;;
16660;SDS011;8444;52.012;5.048;2023-04-03T13:29:37;1.27;;;0.68;;
16660;SDS011;8444;52.012;5.048;2023-04-03T13:32:04;0.85;;;0.40;;
16660;SDS011;8444;52.012;5.048;2023-04-03T13:34:37;0.50;;;0.47;;
16660;SDS011;8444;52.012;5.048;2023-04-03T13:37:03;1.67;;;0.80;;
16660;SDS011;8444;52.012;5.048;2023-04-03T13:39:33;0.93;;;0.65;;
16660;SDS011;8444;52.012;5.048;2023-04-03T13:42:00;1.52;;;0.70;;
16660;SDS011;8444;52.012;5.048;2023-04-03T13:44:30;2.58;;;0.70;;
16660;SDS011;8444;52.012;5.048;2023-04-03T13:49:44;0.88;;;0.57;;
16660;SDS011;8444;52.012;5.048;2023-04-03T13:55:14;3.13;;;0.70;;
16660;SDS011;8444;52.012;5.048;2023-04-03T14:05:50;1.27;;;0.82;;
16660;SDS011;8444;52.012;5.048;2023-04-03T14:08:16;3.53;;;0.60;;
16660;SDS011;8444;52.012;5.048;2023-04-03T14:10:41;1.67;;;0.80;;
16660;SDS011;8444;52.012;5.048;2023-04-03T14:13:09;1.67;;;0.80;;
16660;SDS011;8444;52.012;5.048;2023-04-03T14:15:34;1.88;;;0.52;;
16660;SDS011;8444;52.012;5.048;2023-04-03T14:18:00;1.67;;;0.70;;
16660;SDS011;8444;52.012;5.048;2023-04-03T14:20:26;1.42;;;0.60;;
16660;SDS011;8444;52.012;5.048;2023-04-03T14:22:51;1.08;;;0.70;;
16660;SDS011;8444;52.012;5.048;2023-04-03T14:25:18;1.75;;;0.73;;
16660;SDS011;8444;52.012;5.048;2023-04-03T14:27:44;0.88;;;0.50;;
16660;SDS011;8444;52.012;5.048;2023-04-03T14:30:14;1.38;;;0.50;;
16660;SDS011;8444;52.012;5.048;2023-04-03T14:32:40;1.33;;;0.80;;
16660;SDS011;8444;52.012;5.048;2023-04-03T14:35:05;2.30;;;0.60;;
16660;SDS011;8444;52.012;5.048;2023-04-03T14:37:31;2.00;;;0.65;;
16660;SDS011;8444;52.012;5.048;2023-04-03T14:39:57;2.30;;;0.60;;
16660;SDS011;8444;52.012;5.048;2023-04-03T14:42:24;1.05;;;0.43;;
16660;SDS011;8444;52.012;5.048;2023-04-03T14:44:50;1.20;;;0.63;;
16660;SDS011;8444;52.012;5.048;2023-04-03T14:47:17;1.42;;;0.80;;
16660;SDS011;8444;52.012;5.048;2023-04-03T14:49:43;1.67;;;0.90;;
16660;SDS011;8444;52.012;5.048;2023-04-03T14:52:22;1.27;;;0.82;;
16660;SDS011;8444;52.012;5.048;2023-04-03T14:54:48;2.78;;;0.70;;
16660;SDS011;8444;52.012;5.048;2023-04-03T14:57:14;2.03;;;0.60;;
16660;SDS011;8444;52.012;5.048;2023-04-03T14:59:40;2.55;;;0.85;;
16660;SDS011;8444;52.012;5.048;2023-04-03T15:02:47;0.88;;;0.80;;
16660;SDS011;8444;52.012;5.048;2023-04-03T15:04:54;2.17;;;1.00;;
16660;SDS011;8444;52.012;5.048;2023-04-03T15:07:19;1.77;;;0.70;;
16660;SDS011;8444;52.012;5.048;2023-04-03T15:09:44;1.80;;;1.00;;
16660;SDS011;8444;52.012;5.048;2023-04-03T15:12:10;4.55;;;0.70;;
16660;SDS011;8444;52.012;5.048;2023-04-03T15:14:35;2.05;;;1.00;;
16660;SDS011;8444;52.012;5.048;2023-04-03T15:17:01;2.83;;;1.05;;
16660;SDS011;8444;52.012;5.048;2023-04-03T15:19:27;2.72;;;0.88;;
16660;SDS011;8444;52.012;5.048;2023-04-03T15:21:52;1.58;;;0.80;;
16660;SDS011;8444;52.012;5.048;2023-04-03T15:24:17;1.38;;;0.65;;
16660;SDS011;8444;52.012;5.048;2023-04-03T15:26:42;2.70;;;0.70;;
16660;SDS011;8444;52.012;5.048;2023-04-03T15:29:07;1.08;;;0.90;;
16660;SDS011;8444;52.012;5.048;2023-04-03T15:31:33;2.85;;;0.80;;
16660;SDS011;8444;52.012;5.048;2023-04-03T15:33:58;1.33;;;0.75;;
16660;SDS011;8444;52.012;5.048;2023-04-03T15:36:23;1.95;;;0.93;;
16660;SDS011;8444;52.012;5.048;2023-04-03T15:38:48;2.28;;;1.30;;
16660;SDS011;8444;52.012;5.048;2023-04-03T15:41:14;3.42;;;1.33;;
16660;SDS011;8444;52.012;5.048;2023-04-03T15:43:39;2.75;;;0.93;;
16660;SDS011;8444;52.012;5.048;2023-04-03T15:46:04;6.68;;;1.45;;
16660;SDS011;8444;52.012;5.048;2023-04-03T15:48:29;1.67;;;0.80;;
16660;SDS011;8444;52.012;5.048;2023-04-03T15:50:55;3.72;;;0.82;;
16660;SDS011;8444;52.012;5.048;2023-04-03T15:53:20;2.92;;;1.40;;
16660;SDS011;8444;52.012;5.048;2023-04-03T15:55:45;2.50;;;0.68;;
16660;SDS011;8444;52.012;5.048;2023-04-03T15:58:11;1.33;;;1.00;;
16660;SDS011;8444;52.012;5.048;2023-04-03T16:00:36;1.90;;;0.93;;
16660;SDS011;8444;52.012;5.048;2023-04-03T16:03:06;5.07;;;1.27;;
16660;SDS011;8444;52.012;5.048;2023-04-03T16:05:33;1.17;;;0.82;;
16660;SDS011;8444;52.012;5.048;2023-04-03T16:08:00;6.25;;;0.93;;
16660;SDS011;8444;52.012;5.048;2023-04-03T16:10:25;2.15;;;0.95;;
16660;SDS011;8444;52.012;5.048;2023-04-03T16:12:51;2.40;;;0.98;;
16660;SDS011;8444;52.012;5.048;2023-04-03T16:15:16;1.60;;;1.10;;
16660;SDS011;8444;52.012;5.048;2023-04-03T16:17:41;1.42;;;0.90;;
16660;SDS011;8444;52.012;5.048;2023-04-03T16:20:07;0.93;;;0.85;;
16660;SDS011;8444;52.012;5.048;2023-04-03T16:22:33;3.00;;;1.10;;
16660;SDS011;8444;52.012;5.048;2023-04-03T16:24:58;2.40;;;1.15;;
16660;SDS011;8444;52.012;5.048;2023-04-03T16:27:23;1.10;;;0.60;;
16660;SDS011;8444;52.012;5.048;2023-04-03T16:29:52;3.20;;;1.20;;
16660;SDS011;8444;52.012;5.048;2023-04-03T16:32:18;2.88;;;0.77;;
16660;SDS011;8444;52.012;5.048;2023-04-03T16:34:43;1.55;;;1.20;;
16660;SDS011;8444;52.012;5.048;2023-04-03T16:37:08;2.53;;;1.23;;
16660;SDS011;8444;52.012;5.048;2023-04-03T16:39:34;1.60;;;1.10;;
16660;SDS011;8444;52.012;5.048;2023-04-03T16:41:59;1.98;;;1.00;;
16660;SDS011;8444;52.012;5.048;2023-04-03T16:44:25;1.77;;;1.10;;
16660;SDS011;8444;52.012;5.048;2023-04-03T16:46:51;2.72;;;1.38;;
16660;SDS011;8444;52.012;5.048;2023-04-03T16:49:16;4.00;;;1.00;;
16660;SDS011;8444;52.012;5.048;2023-04-03T16:51:41;3.33;;;1.40;;
16660;SDS011;8444;52.012;5.048;2023-04-03T16:54:06;2.17;;;1.00;;
16660;SDS011;8444;52.012;5.048;2023-04-03T16:56:32;3.35;;;1.08;;
16660;SDS011;8444;52.012;5.048;2023-04-03T16:58:57;3.47;;;1.20;;
16660;SDS011;8444;52.012;5.048;2023-04-03T17:01:22;4.38;;;1.15;;
16660;SDS011;8444;52.012;5.048;2023-04-03T17:03:48;3.55;;;1.33;;
16660;SDS011;8444;52.012;5.048;2023-04-03T17:06:16;4.68;;;1.10;;